Time;durP1;ratioP1;P1;durP2;ratioP2;P2;SDS_P1;SDS_P2;PMS_P1;PMS_P2;Temp;Humidity;BMP_temperature;BMP_pressure;BME280_temperature;BME280_humidity;BME280_pressure;Samples;Min_cycle;Max_cycle;Signal;HPM_P1;HPM_P2
2021/06/22 00:00:13;;;;;;;30.37;8.78;;;;;;;24.76;67.95;100309.84;1750594;80;21596;-59
2021/06/22 00:02:40;;;;;;;28.00;9.08;;;;;;;24.70;68.08;100317.45;1728069;80;21090;-59
2021/06/22 00:05:08;;;;;;;30.62;8.43;;;;;;;24.66;68.39;100310.34;1715794;81;21771;-59
2021/06/22 00:07:34;;;;;;;24.60;7.62;;;;;;;24.67;68.52;100313.85;1736688;81;21117;-58
2021/06/22 00:10:06;;;;;;;21.52;7.53;;;;;;;24.68;68.31;100311.97;1736697;81;21684;-59
2021/06/22 00:12:32;;;;;;;24.98;7.90;;;;;;;24.68;68.25;100314.66;1736339;81;21140;-59
2021/06/22 00:14:59;;;;;;;25.90;7.58;;;;;;;24.68;68.16;100317.36;1737693;80;21074;-59
2021/06/22 00:17:27;;;;;;;29.75;8.10;;;;;;;24.65;68.21;100324.02;1738435;80;21535;-58
2021/06/22 00:19:55;;;;;;;26.73;8.93;;;;;;;24.62;68.22;100319.06;1721185;81;21070;-58
2021/06/22 00:22:21;;;;;;;22.73;8.28;;;;;;;24.57;68.39;100324.27;1738200;80;21008;-58
2021/06/22 00:24:48;;;;;;;27.85;8.65;;;;;;;24.54;68.43;100321.44;1715354;80;21117;-58
2021/06/22 00:27:14;;;;;;;30.88;8.20;;;;;;;24.55;68.34;100313.72;1737646;81;21735;-59
2021/06/22 00:29:47;;;;;;;15.83;8.33;;;;;;;24.56;68.35;100313.19;1737936;81;21137;-59
2021/06/22 00:32:12;;;;;;;25.45;7.92;;;;;;;24.54;68.42;100306.66;1736564;82;21085;-59
2021/06/22 00:34:40;;;;;;;22.90;8.15;;;;;;;24.55;68.55;100316.41;1737216;82;21116;-59
2021/06/22 00:37:07;;;;;;;29.95;8.78;;;;;;;24.52;68.43;100316.81;1738082;81;21598;-59
2021/06/22 00:39:34;;;;;;;23.22;7.33;;;;;;;24.47;68.47;100320.14;1737000;82;21085;-59
2021/06/22 00:42:01;;;;;;;27.40;9.40;;;;;;;24.42;68.68;100316.46;1736486;81;21111;-59
2021/06/22 00:44:28;;;;;;;22.32;8.78;;;;;;;24.40;69.24;100318.55;1722489;81;21070;-59
2021/06/22 00:46:54;;;;;;;21.20;7.85;;;;;;;24.42;69.57;100315.93;1655840;83;21165;-59
2021/06/22 00:49:22;;;;;;;32.88;8.63;;;;;;;24.43;69.53;100313.56;1721252;82;21086;-59
2021/06/22 00:51:48;;;;;;;30.12;8.20;;;;;;;24.44;69.48;100307.65;1738003;81;21589;-59
2021/06/22 00:54:15;;;;;;;27.67;8.95;;;;;;;24.45;69.44;100303.93;1735508;80;21529;-59
2021/06/22 00:56:42;;;;;;;26.40;9.18;;;;;;;24.44;69.39;100291.02;1737286;80;22481;-59
2021/06/22 00:59:09;;;;;;;25.65;8.95;;;;;;;24.42;69.50;100290.38;1734785;82;21054;-59
2021/06/22 01:01:36;;;;;;;25.20;9.25;;;;;;;24.36;69.63;100288.58;1682321;83;21708;-60
2021/06/22 01:04:04;;;;;;;32.48;8.60;;;;;;;24.36;69.70;100289.08;1747533;80;21511;-60
2021/06/22 01:06:31;;;;;;;31.85;8.88;;;;;;;24.39;69.54;100292.69;1738820;80;21872;-59
2021/06/22 01:09:05;;;;;;;32.10;7.62;;;;;;;24.38;69.30;100287.02;1739186;80;20940;-59
2021/06/22 01:11:34;;;;;;;27.32;8.85;;;;;;;24.36;69.62;100284.55;1752970;80;21236;-59
2021/06/22 01:14:00;;;;;;;23.62;9.25;;;;;;;24.36;69.80;100279.66;1745961;80;21565;-59
2021/06/22 01:16:29;;;;;;;34.27;9.75;;;;;;;24.32;70.00;100274.43;1735393;80;21098;-59
2021/06/22 01:19:01;;;;;;;24.70;8.28;;;;;;;24.22;70.23;100269.52;1752449;80;21147;-59
2021/06/22 01:21:32;;;;;;;25.45;9.30;;;;;;;24.12;70.37;100275.36;1752150;80;21060;-59
2021/06/22 01:24:06;;;;;;;34.27;8.58;;;;;;;24.05;70.22;100265.16;1683385;82;21072;-60
2021/06/22 01:26:38;;;;;;;40.05;9.73;;;;;;;24.00;70.37;100269.02;1701580;82;21579;-59
2021/06/22 01:29:07;;;;;;;28.55;9.23;;;;;;;23.93;70.54;100271.73;1751457;80;21084;-59
2021/06/22 01:31:36;;;;;;;26.95;8.58;;;;;;;23.87;70.60;100276.11;1695698;82;21095;-59
2021/06/22 01:34:02;;;;;;;35.65;9.55;;;;;;;23.79;70.76;100273.63;1739442;80;21127;-59
2021/06/22 01:36:30;;;;;;;31.02;9.93;;;;;;;23.71;71.01;100273.33;1698652;82;21033;-59
2021/06/22 01:38:58;;;;;;;31.40;9.15;;;;;;;23.70;71.21;100278.42;1753111;80;21102;-59
2021/06/22 01:41:24;;;;;;;40.38;9.75;;;;;;;23.67;71.28;100276.64;1754263;80;21439;-59
2021/06/22 01:43:52;;;;;;;32.38;9.25;;;;;;;23.62;71.34;100277.30;1752048;80;21143;-59
2021/06/22 01:46:19;;;;;;;32.35;9.53;;;;;;;23.58;71.33;100268.00;1754550;80;21051;-59
2021/06/22 01:48:46;;;;;;;31.30;9.98;;;;;;;23.55;71.37;100266.58;1753142;80;21099;-59
2021/06/22 01:51:12;;;;;;;31.73;9.93;;;;;;;23.52;71.38;100260.81;1739512;80;22427;-60
2021/06/22 01:53:40;;;;;;;34.88;10.90;;;;;;;23.48;71.32;100255.02;1752758;80;21591;-59
2021/06/22 01:56:12;;;;;;;43.75;10.30;;;;;;;23.46;71.25;100262.45;1752976;80;21088;-59
2021/06/22 01:58:40;;;;;;;61.45;12.95;;;;;;;23.49;71.11;100270.63;1753754;80;22438;-59
2021/06/22 02:01:08;;;;;;;43.65;10.08;;;;;;;23.53;70.80;100274.52;1726119;80;21503;-59
2021/06/22 02:03:37;;;;;;;51.92;13.08;;;;;;;23.60;70.32;100277.19;1750275;80;22554;-59
2021/06/22 02:06:05;;;;;;;54.75;11.78;;;;;;;23.59;70.00;100270.16;1752267;80;21133;-59
2021/06/22 02:08:33;;;;;;;58.60;12.63;;;;;;;23.54;69.65;100272.98;1739764;80;21152;-59
2021/06/22 02:10:59;;;;;;;60.60;13.22;;;;;;;23.46;69.63;100273.20;1752489;80;21109;-59
2021/06/22 02:13:32;;;;;;;50.83;11.10;;;;;;;23.44;69.63;100275.28;1752452;80;21113;-59
2021/06/22 02:16:04;;;;;;;44.50;10.78;;;;;;;23.44;69.43;100280.65;1726291;80;21472;-59
2021/06/22 02:18:30;;;;;;;59.88;12.85;;;;;;;23.46;69.25;100276.41;1751227;80;21077;-59
2021/06/22 02:20:57;;;;;;;54.95;10.90;;;;;;;23.46;69.50;100267.02;1727116;80;21707;-60
2021/06/22 02:23:24;;;;;;;55.90;12.85;;;;;;;23.44;69.28;100260.51;1751803;80;21110;-60
2021/06/22 02:25:53;;;;;;;42.13;11.30;;;;;;;23.41;69.12;100260.92;1752191;80;21130;-58
2021/06/22 02:28:22;;;;;;;64.87;11.48;;;;;;;23.37;69.16;100263.20;1753589;80;21076;-59
2021/06/22 02:30:50;;;;;;;55.08;11.95;;;;;;;23.38;68.99;100260.00;1752719;80;21621;-59
2021/06/22 02:33:17;;;;;;;60.12;13.32;;;;;;;23.42;68.73;100255.03;1751996;80;22448;-60
2021/06/22 02:35:45;;;;;;;56.88;11.35;;;;;;;23.43;68.45;100264.74;1752757;80;21099;-59
2021/06/22 02:38:13;;;;;;;52.93;12.00;;;;;;;23.42;68.36;100260.40;1751072;80;21103;-59
2021/06/22 02:40:42;;;;;;;57.13;12.55;;;;;;;23.40;68.30;100267.31;1751200;80;21056;-58
2021/06/22 02:43:10;;;;;;;52.95;10.93;;;;;;;23.37;68.21;100262.39;1749424;80;21127;-59
2021/06/22 02:45:37;;;;;;;55.45;12.45;;;;;;;23.35;68.23;100261.26;1751330;80;21546;-59
2021/06/22 02:48:11;;;;;;;57.05;10.93;;;;;;;23.34;68.27;100256.91;1751476;80;21098;-59
2021/06/22 02:50:39;;;;;;;49.03;10.82;;;;;;;23.36;68.25;100253.49;1752151;80;21087;-59
2021/06/22 02:53:08;;;;;;;48.68;11.15;;;;;;;23.35;68.32;100250.52;1750663;80;21110;-58
2021/06/22 02:55:37;;;;;;;57.73;11.15;;;;;;;23.34;68.10;100246.70;1720079;80;21589;-58
2021/06/22 02:58:07;;;;;;;53.25;11.22;;;;;;;23.29;68.18;100248.66;1738868;80;21075;-59
2021/06/22 03:00:36;;;;;;;51.00;10.75;;;;;;;23.24;68.24;100252.50;1750469;80;21087;-59
2021/06/22 03:03:05;;;;;;;57.95;11.22;;;;;;;23.18;68.27;100258.69;1753236;80;21056;-59
2021/06/22 03:05:33;;;;;;;64.45;11.10;;;;;;;23.16;68.14;100254.88;1748912;80;22547;-58
2021/06/22 03:08:00;;;;;;;53.15;10.78;;;;;;;23.15;67.86;100258.61;1745654;80;21086;-59
2021/06/22 03:10:27;;;;;;;50.28;12.18;;;;;;;23.14;67.91;100258.29;1750436;80;21988;-58
2021/06/22 03:12:54;;;;;;;62.75;12.45;;;;;;;23.16;67.94;100268.81;1752479;80;21084;-58
2021/06/22 03:15:28;;;;;;;46.33;11.83;;;;;;;23.18;67.77;100272.11;1720165;80;21167;-58
2021/06/22 03:17:55;;;;;;;49.03;8.83;;;;;;;23.17;67.54;100269.14;1722204;80;21087;-58
2021/06/22 03:20:24;;;;;;;47.27;10.80;;;;;;;23.14;67.40;100270.36;1752255;80;21417;-59
2021/06/22 03:22:51;;;;;;;59.93;12.10;;;;;;;23.16;67.14;100271.50;1750696;80;22940;-59
2021/06/22 03:25:18;;;;;;;54.70;11.33;;;;;;;23.22;66.97;100277.88;1722071;80;21055;-59
2021/06/22 03:27:46;;;;;;;50.55;11.05;;;;;;;23.23;66.82;100285.73;1722520;80;22408;-58
2021/06/22 03:30:21;;;;;;;60.73;11.57;;;;;;;23.22;66.96;100288.62;1677296;80;21047;-60
2021/06/22 03:32:47;;;;;;;44.85;10.35;;;;;;;23.19;67.10;100282.64;1751392;80;21150;-59
2021/06/22 03:35:15;;;;;;;48.08;11.08;;;;;;;23.20;67.20;100287.52;1725022;80;21106;-59
2021/06/22 03:37:42;;;;;;;54.18;11.95;;;;;;;23.25;66.75;100289.55;1728059;80;21087;-58
2021/06/22 03:40:13;;;;;;;60.75;11.18;;;;;;;23.28;66.87;100281.08;1755031;80;21347;-58
2021/06/22 03:42:41;;;;;;;53.02;11.43;;;;;;;23.30;67.00;100284.37;1752768;80;21121;-59
2021/06/22 03:45:11;;;;;;;51.00;11.50;;;;;;;23.33;66.99;100283.97;1725989;80;21105;-59
2021/06/22 03:47:39;;;;;;;41.92;10.35;;;;;;;23.38;66.95;100289.53;1758064;80;21108;-59
2021/06/22 03:50:08;;;;;;;45.75;9.85;;;;;;;23.44;66.61;100291.39;1729038;80;22456;-59
2021/06/22 03:52:36;;;;;;;43.28;10.45;;;;;;;23.53;66.41;100306.75;1752400;80;21127;-58
2021/06/22 03:57:55;;;;;;;40.92;9.50;;;;;;;23.63;65.87;100299.61;1751783;80;21121;-58
2021/06/22 04:00:23;;;;;;;47.00;11.93;;;;;;;23.66;65.45;100301.34;1754340;80;21112;-59
2021/06/22 04:02:53;;;;;;;41.28;9.45;;;;;;;23.64;65.25;100295.37;1755990;80;21012;-59
2021/06/22 04:05:21;;;;;;;35.55;9.60;;;;;;;23.63;64.97;100286.17;1740909;80;21105;-59
2021/06/22 04:07:53;;;;;;;39.83;7.60;;;;;;;23.66;64.72;100288.45;1750621;80;21098;-60
2021/06/22 04:10:20;;;;;;;32.33;7.12;;;;;;;23.73;64.11;100291.92;1744586;80;21058;-61
2021/06/22 04:12:48;;;;;;;38.90;7.65;;;;;;;23.79;64.00;100288.41;1763007;80;21117;-59
2021/06/22 04:15:16;;;;;;;40.65;8.68;;;;;;;23.85;63.43;100283.53;1758134;80;21061;-57
2021/06/22 04:19:58;;;;;;;29.42;8.18;;;;;;;23.98;61.65;100278.63;1789390;79;22571;-59
2021/06/22 04:22:24;;;;;;;33.50;7.17;;;;;;;23.97;61.53;100278.31;1772779;80;21172;-58
2021/06/22 04:24:53;;;;;;;33.53;7.53;;;;;;;24.02;61.51;100283.88;1770355;80;21131;-59
2021/06/22 04:27:19;;;;;;;27.62;7.97;;;;;;;24.05;60.85;100285.32;1771896;80;22505;-58
2021/06/22 04:29:47;;;;;;;27.60;6.28;;;;;;;24.05;61.10;100275.91;1771654;80;21042;-58
2021/06/22 04:32:13;;;;;;;25.88;6.67;;;;;;;24.05;60.84;100278.60;1769939;80;21264;-58
2021/06/22 04:34:40;;;;;;;26.48;6.15;;;;;;;24.04;60.61;100280.97;1773125;80;21080;-59
2021/06/22 04:37:06;;;;;;;25.10;6.50;;;;;;;24.07;60.41;100279.20;1773655;80;21153;-59
2021/06/22 04:39:33;;;;;;;23.55;5.53;;;;;;;24.18;60.44;100277.72;1769666;80;21121;-58
2021/06/22 04:41:59;;;;;;;26.50;6.08;;;;;;;24.24;59.75;100277.69;1771885;80;21340;-60
2021/06/22 04:44:27;;;;;;;28.40;6.75;;;;;;;24.28;59.47;100273.52;1743836;80;21074;-61
2021/06/22 04:46:53;;;;;;;25.48;6.47;;;;;;;24.34;59.12;100266.97;1769365;79;21133;-59
2021/06/22 04:49:20;;;;;;;22.32;5.60;;;;;;;24.36;59.05;100263.53;1769772;80;21125;-60
2021/06/22 04:51:46;;;;;;;20.15;5.20;;;;;;;24.39;58.97;100262.58;1772300;80;21194;-57
2021/06/22 04:54:13;;;;;;;24.40;5.30;;;;;;;24.40;58.45;100258.86;1744896;80;21580;-58
2021/06/22 04:56:39;;;;;;;28.38;5.50;;;;;;;24.43;58.24;100262.98;1771892;80;21120;-58
2021/06/22 04:59:05;;;;;;;18.90;5.53;;;;;;;24.44;58.41;100264.62;1739882;80;21513;-59
2021/06/22 05:01:32;;;;;;;24.57;5.00;;;;;;;24.45;58.36;100259.56;1745469;80;21089;-57
2021/06/22 05:03:58;;;;;;;24.43;7.10;;;;;;;24.52;58.38;100262.20;1772141;80;21046;-60
2021/06/22 05:06:25;;;;;;;20.25;5.28;;;;;;;24.63;57.18;100262.35;1720417;80;21101;-56
2021/06/22 05:08:52;;;;;;;23.22;5.58;;;;;;;24.73;57.48;100265.06;1768853;80;21070;-54
2021/06/22 05:11:18;;;;;;;29.00;4.92;;;;;;;24.80;57.77;100271.23;1771000;80;21113;-55
2021/06/22 05:13:44;;;;;;;15.40;4.03;;;;;;;24.87;57.14;100272.53;1771626;80;22782;-55
2021/06/22 05:16:11;;;;;;;15.83;4.90;;;;;;;24.91;56.76;100277.76;1736413;80;21098;-56
2021/06/22 05:18:38;;;;;;;16.93;4.37;;;;;;;24.99;56.67;100291.75;1765718;80;21074;-55
2021/06/22 05:21:05;;;;;;;26.05;5.85;;;;;;;25.07;56.58;100289.32;1736476;80;21086;-55
2021/06/22 05:23:33;;;;;;;15.88;4.67;;;;;;;25.16;56.83;100291.20;1757503;80;21691;-58
2021/06/22 05:26:00;;;;;;;14.07;4.08;;;;;;;25.22;56.64;100293.84;1755379;80;21140;-58
2021/06/22 05:28:28;;;;;;;13.90;3.83;;;;;;;25.30;57.24;100291.42;1757842;80;21301;-58
2021/06/22 05:30:56;;;;;;;12.07;4.10;;;;;;;25.37;56.07;100292.17;1756798;80;21501;-58
2021/06/22 05:33:23;;;;;;;10.43;3.90;;;;;;;25.43;54.90;100293.67;1755860;80;21071;-59
2021/06/22 05:35:50;;;;;;;10.55;3.25;;;;;;;25.47;54.80;100290.81;1758035;80;21141;-59
2021/06/22 05:38:16;;;;;;;11.43;3.10;;;;;;;25.53;54.44;100293.97;1757043;80;21082;-60
2021/06/22 05:40:43;;;;;;;13.38;4.40;;;;;;;25.57;54.27;100282.53;1740579;80;22564;-59
2021/06/22 05:43:12;;;;;;;7.72;3.22;;;;;;;25.62;53.94;100282.37;1739307;80;21083;-59
2021/06/22 05:45:38;;;;;;;8.88;3.00;;;;;;;25.63;53.74;100272.72;1719771;82;21072;-59
2021/06/22 05:48:06;;;;;;;12.93;3.25;;;;;;;25.69;53.79;100272.36;1759597;80;21535;-59
2021/06/22 05:50:32;;;;;;;12.50;4.03;;;;;;;25.76;53.58;100265.83;1753570;79;21070;-58
2021/06/22 05:52:59;;;;;;;10.18;3.65;;;;;;;25.83;52.69;100262.23;1756980;80;21154;-59
2021/06/22 05:55:25;;;;;;;8.78;3.27;;;;;;;25.87;52.79;100258.86;1720506;82;21629;-58
2021/06/22 05:57:53;;;;;;;9.03;2.80;;;;;;;25.90;53.30;100267.01;1720989;82;21102;-60
2021/06/22 06:00:23;;;;;;;10.05;3.30;;;;;;;25.94;52.08;100264.14;1756952;80;21106;-58
2021/06/22 06:02:50;;;;;;;10.50;3.55;;;;;;;25.99;51.51;100269.73;1739784;80;21039;-57
2021/06/22 06:05:22;;;;;;;9.93;3.52;;;;;;;26.05;51.45;100274.20;1757524;80;21150;-58
2021/06/22 06:07:48;;;;;;;11.15;2.72;;;;;;;26.10;51.59;100281.07;1759266;80;21031;-57
2021/06/22 06:10:15;;;;;;;7.00;2.85;;;;;;;26.15;51.03;100279.05;1757184;80;21940;-60
2021/06/22 06:12:43;;;;;;;7.50;3.40;;;;;;;26.20;51.25;100279.72;1758330;80;21091;-64
2021/06/22 06:15:13;;;;;;;9.10;2.98;;;;;;;26.27;50.48;100269.66;1760768;80;22035;-59
2021/06/22 06:17:42;;;;;;;7.37;2.40;;;;;;;26.29;50.61;100249.50;1761995;80;21090;-59
2021/06/22 06:20:12;;;;;;;11.73;2.98;;;;;;;26.33;50.87;100235.03;1758767;80;21057;-58
2021/06/22 06:22:40;;;;;;;12.03;3.25;;;;;;;26.36;50.72;100229.17;1759416;80;21059;-60
2021/06/22 06:25:08;;;;;;;9.10;2.70;;;;;;;26.36;49.94;100235.08;1758704;80;21059;-61
2021/06/22 06:27:47;;;;;;;7.25;2.67;;;;;;;26.37;50.52;100232.16;1759020;80;21089;-59
2021/06/22 06:30:13;;;;;;;16.55;3.40;;;;;;;26.42;50.31;100234.98;1759181;80;21490;-60
2021/06/22 06:32:38;;;;;;;11.00;3.20;;;;;;;26.49;49.65;100237.06;1759605;80;21731;-59
2021/06/22 06:35:06;;;;;;;12.80;3.08;;;;;;;26.56;49.73;100240.17;1721502;82;21120;-59
2021/06/22 06:37:35;;;;;;;8.33;3.45;;;;;;;26.62;49.59;100244.64;1760258;80;21573;-59
2021/06/22 06:40:03;;;;;;;7.35;3.05;;;;;;;26.71;49.71;100257.30;1724983;82;21102;-58
2021/06/22 06:42:29;;;;;;;9.50;2.85;;;;;;;26.78;49.64;100276.39;1759781;80;21574;-58
2021/06/22 06:44:58;;;;;;;13.00;3.33;;;;;;;26.87;50.01;100276.86;1759438;80;21146;-58
2021/06/22 06:47:24;;;;;;;9.60;2.83;;;;;;;26.95;48.96;100282.42;1738161;80;21553;-59
2021/06/22 06:49:50;;;;;;;10.72;3.47;;;;;;;26.99;48.94;100293.07;1759696;80;21055;-58
2021/06/22 06:52:17;;;;;;;9.48;2.90;;;;;;;27.01;49.21;100290.95;1731062;80;21540;-60
2021/06/22 06:54:44;;;;;;;10.13;2.87;;;;;;;27.07;48.60;100276.52;1759046;80;20999;-60
2021/06/22 06:57:10;;;;;;;10.35;3.55;;;;;;;27.09;48.60;100283.85;1756378;80;21528;-59
2021/06/22 06:59:37;;;;;;;7.75;2.72;;;;;;;27.11;48.67;100280.38;1757848;80;21070;-58
2021/06/22 07:02:03;;;;;;;12.58;3.08;;;;;;;27.14;48.81;100289.91;1757608;80;21094;-58
2021/06/22 07:04:30;;;;;;;10.20;3.15;;;;;;;27.18;48.79;100293.23;1758902;80;21142;-59
2021/06/22 07:06:59;;;;;;;13.13;3.35;;;;;;;27.22;48.68;100301.17;1761187;80;21093;-60
2021/06/22 07:09:26;;;;;;;11.28;3.20;;;;;;;27.24;48.98;100292.30;1738450;80;21039;-59
2021/06/22 07:11:55;;;;;;;14.25;3.42;;;;;;;27.27;48.61;100284.78;1758768;80;21095;-59
2021/06/22 07:14:21;;;;;;;11.18;2.95;;;;;;;27.27;48.66;100285.63;1704293;82;21087;-59
2021/06/22 07:16:48;;;;;;;12.13;3.08;;;;;;;27.30;49.00;100296.50;1758348;79;22693;-59
2021/06/22 07:19:16;;;;;;;18.37;4.33;;;;;;;27.39;49.56;100281.59;1761711;80;21094;-59
2021/06/22 07:21:45;;;;;;;11.55;3.17;;;;;;;27.51;48.71;100285.09;1731965;80;21114;-59
2021/06/22 07:24:12;;;;;;;13.80;3.52;;;;;;;27.66;47.48;100279.72;1770043;80;21057;-59
2021/06/22 07:26:39;;;;;;;12.15;3.80;;;;;;;27.77;46.67;100289.66;1766412;80;21085;-60
2021/06/22 07:29:06;;;;;;;15.72;3.72;;;;;;;27.88;46.88;100286.11;1732235;80;21188;-60
2021/06/22 07:31:33;;;;;;;15.70;4.08;;;;;;;27.98;45.95;100282.83;1768445;80;21629;-60
2021/06/22 07:34:02;;;;;;;18.40;3.72;;;;;;;28.10;45.54;100280.08;1765866;80;21145;-60
2021/06/22 07:36:28;;;;;;;17.65;4.12;;;;;;;28.18;44.88;100279.69;1737518;80;21456;-60
2021/06/22 07:38:55;;;;;;;16.93;3.85;;;;;;;28.25;45.64;100265.48;1766764;80;21147;-60
2021/06/22 07:41:22;;;;;;;14.55;3.85;;;;;;;28.33;45.42;100270.50;1765456;80;21122;-58
2021/06/22 07:43:49;;;;;;;12.53;3.67;;;;;;;28.39;45.38;100275.45;1767358;80;21096;-61
2021/06/22 07:46:16;;;;;;;13.62;3.83;;;;;;;28.41;45.88;100281.47;1769019;79;21113;-58
2021/06/22 07:48:44;;;;;;;16.42;3.90;;;;;;;28.45;46.10;100269.62;1767862;80;21091;-59
2021/06/22 07:51:11;;;;;;;14.95;3.92;;;;;;;28.48;44.14;100271.81;1766619;80;21595;-58
2021/06/22 07:53:37;;;;;;;24.45;4.87;;;;;;;28.44;44.21;100263.37;1765373;80;21145;-58
2021/06/22 07:56:05;;;;;;;20.23;3.75;;;;;;;28.44;45.30;100259.31;1766887;80;21039;-59
2021/06/22 07:58:31;;;;;;;18.77;4.20;;;;;;;28.49;45.12;100258.58;1732272;80;21141;-57
2021/06/22 08:00:58;;;;;;;14.38;4.08;;;;;;;28.54;44.87;100262.72;1737539;80;21070;-58
2021/06/22 08:03:27;;;;;;;19.32;4.05;;;;;;;28.60;44.25;100266.39;1768175;80;21105;-58
2021/06/22 08:05:53;;;;;;;18.37;4.25;;;;;;;28.66;44.30;100264.03;1736894;80;21143;-59
2021/06/22 08:08:21;;;;;;;18.45;4.85;;;;;;;28.69;44.65;100267.06;1766895;80;21038;-58
2021/06/22 08:10:52;;;;;;;17.73;5.10;;;;;;;28.74;44.82;100277.16;1765450;80;21165;-59
2021/06/22 08:13:20;;;;;;;17.70;3.87;;;;;;;28.77;44.30;100283.45;1760644;79;21541;-58
2021/06/22 08:15:48;;;;;;;30.08;4.03;;;;;;;28.78;44.08;100282.39;1737352;80;21113;-59
2021/06/22 08:18:15;;;;;;;22.55;4.80;;;;;;;28.81;44.18;100283.23;1765934;80;21145;-57
2021/06/22 08:20:41;;;;;;;28.83;5.97;;;;;;;28.85;44.12;100282.20;1767181;80;21663;-58
2021/06/22 08:23:08;;;;;;;23.25;5.12;;;;;;;28.88;43.74;100277.64;1766365;79;21103;-58
2021/06/22 08:25:34;;;;;;;28.60;5.03;;;;;;;28.91;43.96;100277.16;1764780;80;21031;-58
2021/06/22 08:28:01;;;;;;;27.62;5.20;;;;;;;28.97;43.77;100282.14;1766146;80;21345;-58
2021/06/22 08:30:27;;;;;;;28.30;5.62;;;;;;;29.03;44.27;100277.91;1765665;80;21141;-59
2021/06/22 08:32:54;;;;;;;26.52;5.75;;;;;;;29.11;44.51;100275.83;1765162;80;21560;-60
2021/06/22 08:35:24;;;;;;;26.17;5.12;;;;;;;29.18;44.79;100275.95;1763733;80;21410;-59
2021/06/22 08:37:53;;;;;;;35.13;5.12;;;;;;;29.23;44.54;100277.93;1769574;80;21578;-59
2021/06/22 08:40:19;;;;;;;25.02;6.08;;;;;;;29.31;44.79;100278.05;1734930;80;21078;-59
2021/06/22 08:42:46;;;;;;;30.97;6.62;;;;;;;29.36;43.62;100280.83;1765335;79;21776;-59
2021/06/22 08:45:14;;;;;;;31.25;5.92;;;;;;;29.42;43.24;100278.45;1766674;80;21086;-59
2021/06/22 08:47:41;;;;;;;26.73;5.53;;;;;;;29.50;43.54;100284.80;1770384;80;21015;-59
2021/06/22 08:50:09;;;;;;;41.30;7.47;;;;;;;29.58;43.76;100277.59;1766440;80;21589;-60
2021/06/22 08:52:36;;;;;;;38.85;6.28;;;;;;;29.59;42.59;100285.20;1767889;80;21145;-59
2021/06/22 08:55:09;;;;;;;39.23;7.67;;;;;;;29.58;42.59;100282.20;1734838;80;21401;-59
2021/06/22 08:57:36;;;;;;;39.25;8.15;;;;;;;29.64;42.71;100281.20;1767038;80;21094;-58
2021/06/22 09:00:05;;;;;;;40.98;7.22;;;;;;;29.72;40.73;100269.08;1765362;80;21635;-58
2021/06/22 09:02:34;;;;;;;52.38;8.75;;;;;;;29.76;41.70;100267.52;1768024;80;21111;-59
2021/06/22 09:05:01;;;;;;;43.68;9.05;;;;;;;29.79;41.45;100270.56;1738465;80;21038;-59
2021/06/22 09:07:53;;;;;;;40.45;8.75;;;;;;;29.83;41.54;100267.61;1768702;80;21811;-59
2021/06/22 09:10:31;;;;;;;52.17;8.88;;;;;;;29.88;41.94;100269.58;1737021;80;21097;-62
2021/06/22 09:13:11;;;;;;;44.23;8.65;;;;;;;29.95;41.30;100262.59;1767415;80;21062;-58
2021/06/22 09:15:39;;;;;;;65.50;10.80;;;;;;;30.00;41.40;100264.81;1765300;80;21675;-58
2021/06/22 09:18:29;;;;;;;47.03;9.33;;;;;;;30.07;40.70;100267.33;1739719;80;21481;-58
2021/06/22 09:21:00;;;;;;;52.98;10.03;;;;;;;30.12;40.72;100266.57;1761336;80;21767;-58
2021/06/22 09:23:33;;;;;;;71.22;9.40;;;;;;;30.16;40.18;100264.45;1759576;80;21569;-59
2021/06/22 09:26:00;;;;;;;51.75;9.70;;;;;;;30.20;40.19;100260.69;1700736;82;21098;-58
2021/06/22 09:28:30;;;;;;;55.33;10.53;;;;;;;30.26;40.29;100264.25;1699538;82;22229;-58
2021/06/22 09:30:59;;;;;;;53.40;10.80;;;;;;;30.32;40.77;100268.67;1694888;83;21173;-58
2021/06/22 09:33:34;;;;;;;53.68;11.20;;;;;;;30.38;40.68;100263.06;1695713;83;21825;-58
2021/06/22 09:36:15;;;;;;;54.65;11.63;;;;;;;30.46;40.11;100274.52;1696341;83;21061;-58
2021/06/22 09:38:52;;;;;;;54.93;10.53;;;;;;;30.54;39.00;100271.34;1737563;80;21165;-58
2021/06/22 09:41:27;;;;;;;44.27;11.48;;;;;;;30.60;38.34;100264.04;1700268;82;21108;-59
2021/06/22 09:44:12;;;;;;;54.13;10.00;;;;;;;30.62;38.25;100260.55;1761989;80;20967;-60
2021/06/22 09:46:46;;;;;;;51.55;10.82;;;;;;;30.63;39.13;100259.45;1761103;80;21834;-59
2021/06/22 09:49:23;;;;;;;58.02;10.78;;;;;;;30.67;38.33;100261.40;1734703;80;21112;-59
2021/06/22 09:54:29;;;;;;;56.55;10.93;;;;;;;30.73;38.34;100249.51;1758298;80;21142;-60
2021/06/22 09:57:07;;;;;;;50.63;9.88;;;;;;;30.77;37.76;100256.59;1737607;80;21747;-60
2021/06/22 10:00:03;;;;;;;43.58;10.13;;;;;;;30.81;36.97;100249.55;1733076;80;21173;-59
2021/06/22 10:02:28;;;;;;;58.28;10.93;;;;;;;30.82;37.55;100249.84;1739994;80;21047;-59
2021/06/22 10:04:59;;;;;;;65.37;11.22;;;;;;;30.84;37.13;100245.50;1760649;80;21094;-60
2021/06/22 10:07:28;;;;;;;53.33;8.85;;;;;;;30.89;37.28;100246.89;1722031;82;21106;-61
2021/06/22 10:10:03;;;;;;;47.00;9.48;;;;;;;30.94;36.23;100245.59;1759089;80;21098;-58
2021/06/22 10:12:30;;;;;;;60.58;10.30;;;;;;;31.01;35.90;100238.03;1757724;80;21833;-58
2021/06/22 10:15:01;;;;;;;53.58;10.72;;;;;;;31.10;34.84;100235.62;1739676;80;21102;-58
2021/06/22 10:17:29;;;;;;;54.63;11.45;;;;;;;31.15;34.98;100232.12;1760424;80;21145;-59
2021/06/22 10:19:59;;;;;;;59.42;10.15;;;;;;;31.24;35.39;100239.52;1758952;80;21172;-60
2021/06/22 10:22:28;;;;;;;55.92;8.83;;;;;;;31.35;35.78;100234.13;1763680;80;21079;-59
2021/06/22 10:24:59;;;;;;;53.73;9.60;;;;;;;31.47;35.74;100226.56;1764170;80;21145;-59
2021/06/22 10:27:27;;;;;;;53.15;8.98;;;;;;;31.59;36.49;100232.64;1765193;80;21101;-58
2021/06/22 10:29:57;;;;;;;48.52;9.73;;;;;;;31.69;35.77;100228.30;1761250;80;21085;-59
2021/06/22 10:32:26;;;;;;;45.67;10.18;;;;;;;31.76;35.68;100231.61;1737093;80;21090;-59
2021/06/22 10:34:55;;;;;;;49.10;10.43;;;;;;;31.83;34.94;100224.00;1767393;80;21039;-59
2021/06/22 10:37:26;;;;;;;46.53;9.45;;;;;;;31.90;35.00;100230.00;1767199;80;22542;-59
2021/06/22 10:40:03;;;;;;;56.55;10.53;;;;;;;31.98;35.70;100230.02;1767937;80;21069;-59
2021/06/22 10:42:44;;;;;;;55.63;11.20;;;;;;;32.06;35.83;100229.53;1742178;80;21070;-59
2021/06/22 10:45:12;;;;;;;59.45;10.50;;;;;;;32.14;36.23;100228.97;1765214;80;21114;-58
2021/06/22 10:47:40;;;;;;;49.03;8.95;;;;;;;32.21;35.17;100220.02;1759933;79;21121;-58
2021/06/22 10:50:23;;;;;;;42.62;10.78;;;;;;;32.24;34.37;100219.19;1766460;80;21105;-59
2021/06/22 10:53:00;;;;;;;59.93;11.90;;;;;;;32.27;35.44;100225.46;1766471;80;21103;-58
2021/06/22 10:55:36;;;;;;;49.98;10.45;;;;;;;32.30;34.30;100225.73;1765597;80;21113;-61
2021/06/22 10:58:08;;;;;;;73.17;12.20;;;;;;;32.33;34.60;100228.44;1765316;80;21098;-59
2021/06/22 11:00:44;;;;;;;60.52;11.12;;;;;;;32.36;34.50;100227.90;1704485;82;21092;-58
2021/06/22 11:03:36;;;;;;;51.68;10.25;;;;;;;32.42;35.32;100230.91;1767397;80;21046;-58
2021/06/22 11:06:16;;;;;;;56.40;11.65;;;;;;;32.47;34.28;100217.84;1766181;80;21095;-58
2021/06/22 11:08:44;;;;;;;82.70;14.63;;;;;;;32.51;32.84;100219.72;1766377;80;21082;-59
2021/06/22 11:11:15;;;;;;;62.23;10.78;;;;;;;32.57;32.42;100221.91;1768248;80;21561;-59
2021/06/22 11:13:57;;;;;;;61.70;12.35;;;;;;;32.63;32.83;100220.83;1763060;80;21632;-58
2021/06/22 11:16:27;;;;;;;56.65;11.65;;;;;;;32.71;33.03;100223.00;1764920;80;21083;-60
2021/06/22 11:19:08;;;;;;;67.30;10.58;;;;;;;32.76;32.82;100228.44;1738397;80;21070;-59
2021/06/22 11:21:46;;;;;;;61.23;11.95;;;;;;;32.83;32.84;100230.08;1770315;80;21027;-59
2021/06/22 11:24:20;;;;;;;60.12;12.53;;;;;;;32.94;32.45;100234.42;1762534;79;21046;-61
2021/06/22 11:26:58;;;;;;;58.68;11.75;;;;;;;33.01;31.82;100225.41;1770818;80;21616;-61
2021/06/22 11:29:26;;;;;;;58.20;13.88;;;;;;;33.10;31.72;100229.73;1769769;80;21104;-58